Time;durP1;ratioP1;P1;durP2;ratioP2;P2;SDS_P1;SDS_P2;PMS_P1;PMS_P2;Temp;Humidity;BMP_temperature;BMP_pressure;BME280_temperature;BME280_humidity;BME280_pressure;Samples;Min_cycle;Max_cycle;Signal;HPM_P1;HPM_P2
2021/10/23 00:01:46;;;;;;;35.08;16.08;;;29.50;85.70;;;;;;5107652;28;20057;-54
2021/10/23 00:04:13;;;;;;;33.13;15.85;;;29.50;85.60;;;;;;5108136;28;20095;-47
2021/10/23 00:06:39;;;;;;;35.88;15.57;;;29.50;85.70;;;;;;5107497;28;20338;-51
2021/10/23 00:09:06;;;;;;;31.13;15.68;;;29.40;85.80;;;;;;5107906;28;20036;-49
2021/10/23 00:11:33;;;;;;;32.05;15.38;;;29.40;85.70;;;;;;5106353;28;20039;-49
2021/10/23 00:14:00;;;;;;;29.20;14.32;;;29.40;85.70;;;;;;5107652;28;20035;-48
2021/10/23 00:16:26;;;;;;;31.30;14.88;;;29.40;85.70;;;;;;5107571;28;20023;-48
2021/10/23 00:18:53;;;;;;;30.88;13.90;;;29.40;85.70;;;;;;5107776;28;20020;-45
2021/10/23 00:21:19;;;;;;;26.15;15.23;;;29.40;85.60;;;;;;5107391;28;20020;-47
2021/10/23 00:23:46;;;;;;;34.25;14.93;;;29.40;85.60;;;;;;5107285;28;20024;-50
2021/10/23 00:47:14;;;;;;;34.20;14.13;;;29.20;85.40;;;;;;5121790;27;20739;-56
2021/10/23 00:49:41;;;;;;;33.10;13.40;;;29.30;85.10;;;;;;5121775;28;20036;-57
2021/10/23 00:52:09;;;;;;;29.10;13.35;;;29.30;85.00;;;;;;5120578;28;20360;-54
2021/10/23 00:54:40;;;;;;;27.98;13.00;;;29.30;85.40;;;;;;5120654;28;20081;-55
2021/10/23 00:57:07;;;;;;;31.60;13.32;;;29.30;84.90;;;;;;5121454;28;20011;-55
2021/10/23 00:59:35;;;;;;;26.27;12.70;;;29.30;84.90;;;;;;5121617;28;20035;-50
2021/10/23 01:02:04;;;;;;;22.60;12.38;;;29.30;84.80;;;;;;5121813;28;20311;-49
2021/10/23 01:04:33;;;;;;;26.52;12.45;;;29.30;84.80;;;;;;5120474;28;20311;-48
2021/10/23 01:07:00;;;;;;;20.70;11.98;;;29.30;84.70;;;;;;5121468;28;20057;-53
2021/10/23 01:09:27;;;;;;;27.67;12.07;;;29.20;84.60;;;;;;5119925;28;20189;-51
2021/10/23 01:11:54;;;;;;;21.65;11.52;;;29.20;84.60;;;;;;5121363;28;20034;-53
2021/10/23 01:14:24;;;;;;;25.10;11.75;;;29.20;84.60;;;;;;5121198;28;20024;-49
2021/10/23 01:16:54;;;;;;;17.35;10.75;;;29.20;84.50;;;;;;5119926;28;20211;-52
2021/10/23 01:19:20;;;;;;;20.48;11.30;;;29.20;84.40;;;;;;5121203;28;20078;-52
2021/10/23 01:21:50;;;;;;;24.58;10.77;;;29.20;84.30;;;;;;5119970;28;20028;-53
2021/10/23 01:24:17;;;;;;;20.63;11.55;;;29.20;84.20;;;;;;5120846;28;20380;-53
2021/10/23 01:26:45;;;;;;;21.98;11.20;;;29.20;84.20;;;;;;5121057;28;20020;-56
2021/10/23 01:29:14;;;;;;;21.17;11.38;;;29.10;84.00;;;;;;5120943;28;20086;-52
2021/10/23 01:31:42;;;;;;;18.05;11.13;;;29.10;83.80;;;;;;5120958;28;20026;-56
2021/10/23 01:34:22;;;;;;;17.77;10.90;;;29.10;83.90;;;;;;5120815;28;20020;-56
2021/10/23 01:36:57;;;;;;;22.48;10.43;;;29.10;83.80;;;;;;5120578;28;20040;-54
2021/10/23 01:39:25;;;;;;;19.95;10.23;;;29.10;83.60;;;;;;5119533;28;20053;-54
2021/10/23 01:41:53;;;;;;;18.75;10.10;;;29.10;83.40;;;;;;5120613;28;20203;-54
2021/10/23 01:44:28;;;;;;;18.38;10.02;;;29.10;83.30;;;;;;5120648;28;20304;-52
2021/10/23 01:46:55;;;;;;;18.50;9.32;;;29.00;83.20;;;;;;5111926;28;20067;-55
2021/10/23 01:49:22;;;;;;;21.40;9.27;;;29.00;83.10;;;;;;5106809;28;20335;-55
2021/10/23 01:51:49;;;;;;;17.15;10.38;;;29.00;83.00;;;;;;5106979;28;20016;-54
2021/10/23 01:54:17;;;;;;;13.48;8.75;;;29.00;82.90;;;;;;5106860;28;20079;-51
2021/10/23 01:56:43;;;;;;;17.55;8.93;;;29.00;82.60;;;;;;5106786;28;20312;-52
2021/10/23 01:59:10;;;;;;;16.83;8.57;;;29.00;82.70;;;;;;5105398;28;20359;-55
2021/10/23 02:01:37;;;;;;;16.98;8.48;;;29.00;82.60;;;;;;5106664;28;20016;-54
2021/10/23 02:04:05;;;;;;;14.77;8.43;;;29.00;82.50;;;;;;5106648;28;20012;-54
2021/10/23 02:06:32;;;;;;;18.65;8.10;;;29.00;82.40;;;;;;5107124;28;20051;-54
2021/10/23 02:09:00;;;;;;;11.93;7.50;;;29.00;82.30;;;;;;5105498;28;20377;-54
2021/10/23 02:11:27;;;;;;;15.50;8.32;;;28.90;82.00;;;;;;5106953;28;20255;-55
2021/10/23 02:13:54;;;;;;;13.52;7.90;;;28.90;81.90;;;;;;5106550;28;20039;-55
2021/10/23 02:16:21;;;;;;;12.50;7.10;;;28.90;82.00;;;;;;5106875;28;20215;-55
2021/10/23 02:18:47;;;;;;;15.23;7.40;;;28.90;81.90;;;;;;5106409;28;20070;-54
2021/10/23 02:21:14;;;;;;;18.92;8.20;;;28.90;81.90;;;;;;5105295;28;20035;-54
2021/10/23 02:23:43;;;;;;;14.27;7.47;;;28.90;81.90;;;;;;5106311;28;20024;-56
2021/10/23 02:26:09;;;;;;;15.07;8.38;;;28.90;81.90;;;;;;5105911;28;20197;-55
2021/10/23 02:28:37;;;;;;;14.77;7.90;;;28.90;81.90;;;;;;5106265;28;20012;-54
2021/10/23 02:31:04;;;;;;;14.20;6.80;;;28.90;81.90;;;;;;5106778;28;20188;-55
2021/10/23 02:33:31;;;;;;;15.10;7.32;;;28.90;82.00;;;;;;5104986;28;20012;-55
2021/10/23 02:35:57;;;;;;;16.30;8.02;;;28.80;81.90;;;;;;5106524;28;20096;-54
2021/10/23 02:38:25;;;;;;;15.77;7.63;;;28.90;81.90;;;;;;5106054;28;20030;-53
2021/10/23 02:40:52;;;;;;;13.48;7.50;;;28.80;81.90;;;;;;5106321;28;20027;-50
2021/10/23 02:43:19;;;;;;;32.47;9.07;;;28.80;81.90;;;;;;5105951;28;20024;-54
2021/10/23 02:45:45;;;;;;;18.13;8.00;;;28.80;82.00;;;;;;5104519;28;20081;-55
2021/10/23 02:48:12;;;;;;;16.67;7.25;;;28.80;82.10;;;;;;5105659;28;20012;-54
2021/10/23 02:50:39;;;;;;;16.38;8.40;;;28.80;82.10;;;;;;5106185;28;20191;-53
2021/10/23 02:53:05;;;;;;;16.67;7.72;;;28.80;82.00;;;;;;5105719;28;20075;-52
2021/10/23 02:55:32;;;;;;;21.80;7.80;;;28.80;82.00;;;;;;5105848;28;20039;-54
2021/10/23 02:57:59;;;;;;;14.15;7.38;;;28.80;82.00;;;;;;5104930;28;20024;-55
2021/10/23 03:00:26;;;;;;;11.05;6.68;;;28.80;81.90;;;;;;5104543;28;20134;-56
2021/10/23 03:02:53;;;;;;;13.32;7.30;;;28.70;81.70;;;;;;5104539;28;20030;-55
2021/10/23 03:05:20;;;;;;;12.55;7.05;;;28.70;81.60;;;;;;5105688;28;20032;-53
2021/10/23 03:07:47;;;;;;;13.05;7.18;;;28.70;81.70;;;;;;5105597;28;20064;-52
2021/10/23 03:10:14;;;;;;;16.80;7.25;;;28.70;81.60;;;;;;5105309;28;20024;-53
2021/10/23 03:12:41;;;;;;;14.82;6.55;;;28.70;81.50;;;;;;5105613;28;20024;-55
2021/10/23 03:15:08;;;;;;;10.85;7.13;;;28.70;81.40;;;;;;5105426;28;20035;-55
2021/10/23 03:17:35;;;;;;;9.23;6.15;;;28.70;81.30;;;;;;5105262;28;20020;-55
2021/10/23 03:20:03;;;;;;;11.30;6.60;;;28.70;81.20;;;;;;5104291;28;20028;-54
2021/10/23 03:22:30;;;;;;;11.27;6.43;;;28.70;81.20;;;;;;5105268;28;20038;-53
2021/10/23 03:24:57;;;;;;;12.52;6.78;;;28.70;81.00;;;;;;5104996;28;20047;-56
2021/10/23 03:27:23;;;;;;;9.70;6.40;;;28.70;81.00;;;;;;5105277;28;20022;-55
2021/10/23 03:29:51;;;;;;;11.40;6.85;;;28.60;81.00;;;;;;5105265;28;20200;-54
2021/10/23 03:32:18;;;;;;;16.73;6.63;;;28.60;80.90;;;;;;5105008;28;20304;-53
2021/10/23 03:34:44;;;;;;;11.02;5.95;;;28.60;80.90;;;;;;5105253;28;20075;-53
2021/10/23 03:37:11;;;;;;;11.40;5.75;;;28.60;80.80;;;;;;5104833;28;20012;-54
2021/10/23 03:39:40;;;;;;;15.48;6.10;;;28.60;80.80;;;;;;5104966;28;20032;-54
2021/10/23 03:42:09;;;;;;;10.35;5.72;;;28.60;80.70;;;;;;5104863;28;20043;-55
2021/10/23 03:44:36;;;;;;;8.63;5.85;;;28.60;80.70;;;;;;5104889;28;20246;-53
2021/10/23 03:47:03;;;;;;;12.32;5.68;;;28.60;80.60;;;;;;5104716;28;20028;-54
2021/10/23 03:49:30;;;;;;;8.82;5.65;;;28.60;80.70;;;;;;5104922;28;20087;-53
2021/10/23 03:51:58;;;;;;;9.63;5.53;;;28.60;80.60;;;;;;5104730;28;20023;-53
2021/10/23 03:54:25;;;;;;;9.40;5.05;;;28.50;80.40;;;;;;5103337;28;20039;-56
2021/10/23 03:56:51;;;;;;;10.27;5.68;;;28.60;80.30;;;;;;5104442;28;20020;-54
2021/10/23 03:59:18;;;;;;;11.73;5.65;;;28.50;80.20;;;;;;5104438;28;20036;-55
2021/10/23 04:01:45;;;;;;;8.10;5.55;;;28.50;80.20;;;;;;5104459;28;20069;-53
2021/10/23 04:04:12;;;;;;;9.95;5.30;;;28.50;80.20;;;;;;5104222;28;20355;-57
2021/10/23 04:06:38;;;;;;;8.18;5.22;;;28.50;80.10;;;;;;5104282;28;20069;-56
2021/10/23 04:09:05;;;;;;;9.82;4.97;;;28.50;80.10;;;;;;5104234;28;20034;-53
2021/10/23 04:11:32;;;;;;;10.18;5.28;;;28.50;80.00;;;;;;5103266;28;20249;-53
2021/10/23 04:13:58;;;;;;;10.90;5.30;;;28.50;80.00;;;;;;5104249;28;20023;-55
2021/10/23 04:16:25;;;;;;;10.10;5.32;;;28.50;80.00;;;;;;5104731;28;20019;-53
2021/10/23 04:18:52;;;;;;;9.10;5.63;;;28.50;80.00;;;;;;5104141;28;20055;-55
2021/10/23 04:21:18;;;;;;;10.63;5.70;;;28.50;79.90;;;;;;5104769;28;20051;-56
2021/10/23 04:23:45;;;;;;;10.27;5.47;;;28.40;79.80;;;;;;5104279;28;20073;-55
2021/10/23 04:26:12;;;;;;;11.73;4.88;;;28.50;79.80;;;;;;5104428;28;20206;-56
2021/10/23 04:28:38;;;;;;;8.50;5.07;;;28.40;79.70;;;;;;5104235;28;20083;-53
2021/10/23 04:31:05;;;;;;;10.57;5.45;;;28.40;79.60;;;;;;5104516;28;20024;-55
2021/10/23 04:33:32;;;;;;;8.27;4.75;;;28.40;79.50;;;;;;5103986;28;20031;-54
2021/10/23 04:35:58;;;;;;;6.15;4.57;;;28.40;79.60;;;;;;5104340;28;20035;-52
2021/10/23 04:38:25;;;;;;;9.25;4.95;;;28.40;79.50;;;;;;5103961;28;20016;-50
2021/10/23 04:40:52;;;;;;;11.68;5.20;;;28.40;79.40;;;;;;5104222;28;20020;-49
2021/10/23 04:43:19;;;;;;;10.68;6.03;;;28.40;79.40;;;;;;5104069;28;20050;-55
2021/10/23 04:45:45;;;;;;;13.05;8.55;;;28.40;79.30;;;;;;5103912;28;20059;-55
2021/10/23 04:48:12;;;;;;;16.40;10.00;;;28.40;79.40;;;;;;5103781;28;20087;-56
2021/10/23 04:50:38;;;;;;;24.23;12.35;;;28.40;79.50;;;;;;5104179;28;20024;-54
2021/10/23 04:53:05;;;;;;;24.52;13.88;;;28.40;79.60;;;;;;5103950;28;20333;-54
2021/10/23 04:55:32;;;;;;;22.15;14.00;;;28.40;79.60;;;;;;5104020;28;20063;-55
2021/10/23 04:57:59;;;;;;;20.35;12.68;;;28.40;79.70;;;;;;5103884;28;20038;-55
2021/10/23 05:00:26;;;;;;;21.50;11.07;;;28.40;79.70;;;;;;5104042;28;20028;-53
2021/10/23 05:02:53;;;;;;;16.08;9.57;;;28.40;79.80;;;;;;5103787;28;20020;-58
2021/10/23 05:05:20;;;;;;;20.70;8.70;;;28.40;79.80;;;;;;5103900;28;20043;-54
2021/10/23 05:07:47;;;;;;;21.55;8.55;;;28.40;79.80;;;;;;5103770;28;20039;-54
2021/10/23 05:10:14;;;;;;;18.08;8.27;;;28.30;79.50;;;;;;5102685;28;20345;-53
2021/10/23 05:12:41;;;;;;;10.52;7.20;;;28.30;79.60;;;;;;5103986;28;20024;-53
2021/10/23 05:15:08;;;;;;;17.95;8.05;;;28.30;79.50;;;;;;5103862;28;20071;-49
2021/10/23 05:17:34;;;;;;;11.13;6.80;;;28.30;79.50;;;;;;5103670;28;20048;-51
2021/10/23 05:20:01;;;;;;;11.07;7.22;;;28.30;79.50;;;;;;5103842;28;20031;-50
2021/10/23 05:22:28;;;;;;;10.68;6.07;;;28.30;79.30;;;;;;5105749;28;20060;-50
2021/10/23 05:24:54;;;;;;;13.10;6.97;;;28.30;79.40;;;;;;5107595;28;20088;-49
2021/10/23 05:27:21;;;;;;;9.50;7.20;;;28.30;79.30;;;;;;5107287;28;20263;-47
2021/10/23 05:29:47;;;;;;;8.93;6.10;;;28.30;79.30;;;;;;5107547;28;20200;-49
2021/10/23 05:32:14;;;;;;;12.80;6.35;;;28.30;79.50;;;;;;5107394;28;20011;-52
2021/10/23 05:34:41;;;;;;;11.10;6.20;;;28.30;79.50;;;;;;5107197;28;20257;-52
2021/10/23 05:37:07;;;;;;;9.45;6.20;;;28.20;79.40;;;;;;5107160;28;20020;-52
2021/10/23 05:39:34;;;;;;;8.55;5.93;;;28.20;79.60;;;;;;5107128;28;20073;-52
2021/10/23 05:42:00;;;;;;;11.13;5.35;;;28.20;79.50;;;;;;5106981;28;20095;-52
2021/10/23 05:44:27;;;;;;;8.65;5.63;;;28.20;79.60;;;;;;5107042;28;20020;-52
2021/10/23 05:46:53;;;;;;;9.07;5.57;;;28.20;79.50;;;;;;5107026;28;20039;-54
2021/10/23 05:49:20;;;;;;;14.55;6.55;;;28.20;79.60;;;;;;5107084;28;20023;-53
2021/10/23 05:51:47;;;;;;;9.90;5.93;;;28.20;79.70;;;;;;5107175;28;20057;-53
2021/10/23 05:54:14;;;;;;;8.90;5.80;;;28.20;79.90;;;;;;5106862;28;20225;-53
2021/10/23 05:56:40;;;;;;;10.85;5.97;;;28.20;80.00;;;;;;5106680;28;20035;-54
2021/10/23 05:59:11;;;;;;;7.70;5.90;;;28.20;80.00;;;;;;5106758;28;20020;-56
2021/10/23 06:01:46;;;;;;;10.25;5.90;;;28.20;79.90;;;;;;5106838;28;20031;-52
2021/10/23 06:04:16;;;;;;;10.13;6.18;;;28.20;80.00;;;;;;5106788;28;20026;-53
2021/10/23 06:06:45;;;;;;;12.45;6.38;;;28.20;80.00;;;;;;5106627;28;20023;-53
2021/10/23 06:09:12;;;;;;;10.85;6.13;;;28.20;80.00;;;;;;5106401;28;20016;-54
2021/10/23 06:11:38;;;;;;;14.77;5.95;;;28.20;80.00;;;;;;5106605;28;20384;-49
2021/10/23 06:14:05;;;;;;;15.43;6.40;;;28.20;80.00;;;;;;5106551;28;20046;-50
2021/10/23 06:16:32;;;;;;;7.32;6.05;;;28.20;80.10;;;;;;5106942;28;20051;-54
2021/10/23 06:18:59;;;;;;;10.90;5.78;;;28.20;80.50;;;;;;5106398;28;20032;-50
2021/10/23 06:21:25;;;;;;;12.38;6.50;;;28.20;80.10;;;;;;5106880;28;20023;-51
2021/10/23 06:23:52;;;;;;;10.10;5.90;;;28.20;80.10;;;;;;5106329;28;20016;-50
2021/10/23 06:26:19;;;;;;;9.82;6.18;;;28.20;80.10;;;;;;5105996;28;20052;-52
2021/10/23 06:28:45;;;;;;;11.02;6.45;;;28.20;80.10;;;;;;5106179;28;20058;-53
2021/10/23 06:31:12;;;;;;;13.77;6.38;;;28.20;80.00;;;;;;5106651;28;20070;-52
2021/10/23 06:33:38;;;;;;;13.20;6.22;;;28.20;80.10;;;;;;5106240;28;20362;-51
2021/10/23 06:36:05;;;;;;;9.25;6.15;;;28.20;80.20;;;;;;5106460;28;20055;-52
2021/10/23 06:38:31;;;;;;;9.38;6.00;;;28.20;80.20;;;;;;5106060;28;20331;-50
2021/10/23 06:40:58;;;;;;;11.85;6.10;;;28.10;80.20;;;;;;5106284;28;20058;-52
2021/10/23 06:43:25;;;;;;;10.02;6.45;;;28.10;80.20;;;;;;5105939;28;20015;-51
2021/10/23 06:45:53;;;;;;;8.60;5.60;;;28.10;80.10;;;;;;5105756;28;20039;-53
2021/10/23 06:48:20;;;;;;;12.63;5.80;;;28.10;80.10;;;;;;5105730;28;20083;-52
2021/10/23 06:50:46;;;;;;;10.45;5.55;;;28.10;80.10;;;;;;5106126;28;20020;-52
2021/10/23 06:53:13;;;;;;;9.68;5.97;;;28.10;80.00;;;;;;5105811;28;20016;-51
2021/10/23 06:55:40;;;;;;;9.30;6.10;;;28.10;80.10;;;;;;5105890;28;20020;-54
2021/10/23 06:58:07;;;;;;;10.02;5.90;;;28.10;80.20;;;;;;5105673;28;20039;-58
2021/10/23 07:00:33;;;;;;;7.80;6.30;;;28.10;80.30;;;;;;5105896;28;20034;-54
2021/10/23 07:03:00;;;;;;;8.07;5.72;;;28.10;80.30;;;;;;5105431;28;20024;-55
2021/10/23 07:05:28;;;;;;;10.82;6.22;;;28.00;80.20;;;;;;5105704;28;20028;-59
2021/10/23 07:07:54;;;;;;;10.45;6.53;;;28.00;80.20;;;;;;5105630;28;20027;-59
2021/10/23 07:10:21;;;;;;;10.48;6.20;;;28.00;80.20;;;;;;5105532;28;20089;-55
2021/10/23 07:12:48;;;;;;;10.85;6.28;;;28.00;80.80;;;;;;5105506;28;20024;-59
2021/10/23 07:15:15;;;;;;;13.00;6.80;;;28.00;80.30;;;;;;5105554;28;20379;-58
2021/10/23 07:17:42;;;;;;;10.98;7.05;;;28.00;80.40;;;;;;5105207;28;20065;-55
2021/10/23 07:20:10;;;;;;;8.52;6.22;;;28.00;80.30;;;;;;5105435;28;20371;-53
2021/10/23 07:22:37;;;;;;;7.75;5.70;;;28.00;80.20;;;;;;5105161;28;20024;-54
2021/10/23 07:25:05;;;;;;;9.30;6.10;;;28.00;80.30;;;;;;5105137;28;20043;-53
2021/10/23 07:27:32;;;;;;;9.65;6.38;;;28.00;80.20;;;;;;5105091;28;20023;-56
2021/10/23 07:29:58;;;;;;;9.80;6.43;;;28.00;80.10;;;;;;5105270;28;20020;-55
2021/10/23 07:32:25;;;;;;;10.15;6.65;;;28.00;80.10;;;;;;5104824;28;20020;-59
2021/10/23 07:34:52;;;;;;;11.65;6.88;;;28.00;80.00;;;;;;5105219;28;20035;-62
2021/10/23 07:37:18;;;;;;;10.57;6.72;;;28.00;80.10;;;;;;5104953;28;20019;-62
2021/10/23 07:39:45;;;;;;;11.15;7.43;;;28.00;80.10;;;;;;5104854;28;20292;-62
2021/10/23 07:42:12;;;;;;;10.38;7.80;;;28.00;80.10;;;;;;5104947;28;20065;-61
2021/10/23 07:44:38;;;;;;;11.73;7.90;;;28.00;80.00;;;;;;5104103;28;20078;-62
2021/10/23 07:47:05;;;;;;;13.32;7.57;;;28.00;80.10;;;;;;5104681;28;20020;-57
2021/10/23 07:49:31;;;;;;;11.05;7.63;;;28.00;80.10;;;;;;5104749;28;20067;-54
2021/10/23 07:51:58;;;;;;;12.02;7.07;;;28.00;80.20;;;;;;5104695;28;20023;-54
2021/10/23 07:54:25;;;;;;;8.98;7.25;;;28.00;80.20;;;;;;5104591;28;20016;-58
2021/10/23 07:56:51;;;;;;;12.60;7.40;;;28.00;80.20;;;;;;5104872;28;20066;-56
2021/10/23 07:59:18;;;;;;;10.15;7.32;;;28.00;80.20;;;;;;5104501;28;20315;-53
2021/10/23 08:01:45;;;;;;;12.20;7.07;;;28.00;80.20;;;;;;5104502;28;20346;-55
2021/10/23 08:04:11;;;;;;;13.50;7.72;;;28.00;80.80;;;;;;5104302;28;20012;-53
2021/10/23 08:06:39;;;;;;;12.50;7.45;;;28.00;80.20;;;;;;5104443;28;20369;-55
2021/10/23 08:09:11;;;;;;;11.98;7.40;;;27.90;80.20;;;;;;5104450;28;20045;-56
2021/10/23 08:11:42;;;;;;;13.32;7.57;;;27.90;80.20;;;;;;5104363;28;20032;-54
2021/10/23 08:14:10;;;;;;;9.35;7.13;;;27.90;80.70;;;;;;5104268;28;20208;-53
2021/10/23 08:16:36;;;;;;;11.52;7.93;;;27.90;80.20;;;;;;5104166;28;20019;-54
2021/10/23 08:19:03;;;;;;;10.57;7.22;;;28.00;80.20;;;;;;5104294;28;20023;-55
2021/10/23 08:21:31;;;;;;;11.30;7.45;;;27.90;80.10;;;;;;5104747;28;20035;-56
2021/10/23 08:23:59;;;;;;;12.18;7.47;;;27.90;80.00;;;;;;5104077;28;20024;-54
2021/10/23 08:26:26;;;;;;;10.05;7.25;;;27.90;80.00;;;;;;5104557;28;20073;-54
2021/10/23 08:28:54;;;;;;;13.63;7.43;;;27.90;80.10;;;;;;5104263;28;20418;-54
2021/10/23 08:31:21;;;;;;;10.80;6.40;;;27.90;80.00;;;;;;5104424;28;20054;-52
2021/10/23 08:33:48;;;;;;;11.80;6.72;;;27.90;80.00;;;;;;5104383;28;20022;-47
2021/10/23 08:36:15;;;;;;;11.30;6.82;;;27.90;79.90;;;;;;5104456;28;20116;-49
2021/10/23 08:38:42;;;;;;;9.73;6.60;;;27.90;80.00;;;;;;5103985;28;20031;-51
2021/10/23 08:41:11;;;;;;;12.88;7.32;;;27.90;80.10;;;;;;5103883;28;20028;-51
2021/10/23 08:43:42;;;;;;;12.25;7.85;;;27.90;80.20;;;;;;5103993;28;20087;-52
2021/10/23 08:46:23;;;;;;;14.48;6.97;;;27.90;80.20;;;;;;5102527;28;20067;-49
2021/10/23 08:48:54;;;;;;;13.23;6.70;;;27.90;80.20;;;;;;5103926;28;20326;-52
2021/10/23 08:51:22;;;;;;;11.52;7.03;;;27.90;80.30;;;;;;5104287;28;20020;-52
2021/10/23 08:53:53;;;;;;;10.32;7.30;;;27.90;80.20;;;;;;5103916;28;20087;-48
2021/10/23 08:56:20;;;;;;;9.15;6.30;;;27.90;80.30;;;;;;5104173;28;20109;-54
2021/10/23 08:58:46;;;;;;;11.90;7.53;;;27.90;80.50;;;;;;5107859;28;20073;-55
2021/10/23 09:01:15;;;;;;;14.65;6.88;;;27.90;80.50;;;;;;5108352;28;20032;-55
2021/10/23 09:03:42;;;;;;;14.55;7.13;;;27.90;80.60;;;;;;5107980;28;20020;-60
2021/10/23 09:06:40;;;;;;;14.23;7.00;;;27.90;80.70;;;;;;5108038;28;20334;-62
2021/10/23 09:09:14;;;;;;;15.23;7.43;;;27.90;80.80;;;;;;5104822;28;20028;-62
2021/10/23 09:11:49;;;;;;;13.68;7.00;;;27.90;80.80;;;;;;5108130;28;20026;-64
2021/10/23 09:14:25;;;;;;;10.52;6.57;;;27.90;81.00;;;;;;5107647;28;20020;-64
2021/10/23 09:17:02;;;;;;;13.38;6.82;;;27.90;81.10;;;;;;5107916;28;20016;-63
2021/10/23 09:19:44;;;;;;;14.98;7.22;;;27.80;81.00;;;;;;5107981;28;20016;-65
2021/10/23 09:22:58;;;;;;;12.07;7.30;;;27.80;81.10;;;;;;5108098;28;20334;-66
2021/10/23 09:25:33;;;;;;;11.63;7.00;;;27.80;81.20;;;;;;5098709;28;20067;-59
2021/10/23 09:28:09;;;;;;;14.43;7.05;;;27.80;81.50;;;;;;5107495;28;20016;-50
2021/10/23 09:30:39;;;;;;;13.43;7.32;;;27.80;81.80;;;;;;5107639;28;20027;-49
2021/10/23 09:33:06;;;;;;;13.80;7.45;;;27.80;82.20;;;;;;5107334;28;20015;-55
2021/10/23 09:35:42;;;;;;;10.88;7.30;;;27.80;82.30;;;;;;5107400;28;20091;-53
2021/10/23 09:38:10;;;;;;;16.77;7.47;;;27.80;82.20;;;;;;5107241;28;20036;-55
2021/10/23 09:40:39;;;;;;;14.32;7.43;;;27.80;82.10;;;;;;5107093;28;20035;-49
2021/10/23 09:43:14;;;;;;;14.77;7.50;;;27.80;82.10;;;;;;5107045;28;20032;-48
2021/10/23 09:46:07;;;;;;;14.52;8.00;;;27.80;82.40;;;;;;5107012;28;20044;-50
2021/10/23 09:48:39;;;;;;;22.02;8.55;;;27.80;83.00;;;;;;5106988;28;20020;-47
2021/10/23 09:51:14;;;;;;;13.23;7.47;;;27.80;83.60;;;;;;5107470;28;20028;-50
2021/10/23 09:54:02;;;;;;;16.42;7.97;;;27.80;84.10;;;;;;5107174;28;20023;-48
2021/10/23 09:56:39;;;;;;;17.90;8.35;;;27.70;84.30;;;;;;5107392;28;20028;-50
2021/10/23 09:59:11;;;;;;;18.10;8.10;;;27.70;84.90;;;;;;5106925;28;20043;-47
2021/10/23 10:01:40;;;;;;;17.38;7.95;;;27.80;84.80;;;;;;5106804;28;20069;-49
2021/10/23 10:04:09;;;;;;;13.00;7.18;;;27.70;85.00;;;;;;5106618;28;20050;-52
2021/10/23 10:06:51;;;;;;;11.90;7.65;;;27.70;85.10;;;;;;5106607;28;20028;-55
2021/10/23 10:09:25;;;;;;;13.38;7.38;;;27.70;85.20;;;;;;5106134;28;20075;-51
2021/10/23 10:11:54;;;;;;;11.98;7.57;;;27.70;85.20;;;;;;5106644;28;20031;-51
2021/10/23 10:14:36;;;;;;;17.83;7.28;;;27.70;85.40;;;;;;5106585;28;20015;-49
2021/10/23 10:17:03;;;;;;;11.25;7.38;;;27.60;85.30;;;;;;5106509;28;20126;-47
2021/10/23 10:19:30;;;;;;;13.27;7.32;;;27.60;85.30;;;;;;5106483;28;20035;-49
2021/10/23 10:22:08;;;;;;;12.60;7.07;;;27.60;85.40;;;;;;5106562;28;20073;-49
2021/10/23 10:24:39;;;;;;;11.98;6.90;;;27.60;85.40;;;;;;5106304;28;20319;-50
2021/10/23 10:27:17;;;;;;;13.35;7.75;;;27.60;85.60;;;;;;5106167;28;20085;-53
2021/10/23 10:29:52;;;;;;;13.80;7.32;;;27.60;85.80;;;;;;5106437;28;20090;-54
2021/10/23 10:32:23;;;;;;;16.15;7.85;;;27.60;86.00;;;;;;5106055;28;20016;-60
2021/10/23 10:43:19;;;;;;;13.43;7.82;;;27.60;86.40;;;;;;5106010;28;20268;-57
2021/10/23 10:45:46;;;;;;;14.30;8.75;;;27.60;86.60;;;;;;5105778;28;20066;-55
2021/10/23 10:48:30;;;;;;;12.85;7.80;;;27.60;86.70;;;;;;5105779;28;20020;-55
2021/10/23 10:50:58;;;;;;;13.77;8.98;;;27.50;86.80;;;;;;5106185;28;20024;-56
2021/10/23 10:53:36;;;;;;;11.20;8.18;;;27.60;87.00;;;;;;5105628;28;20079;-55
2021/10/23 10:56:03;;;;;;;10.40;8.40;;;27.50;86.90;;;;;;5106126;28;20042;-56
2021/10/23 10:58:56;;;;;;;14.15;8.93;;;27.60;87.00;;;;;;5105760;28;20019;-60
2021/10/23 11:01:25;;;;;;;18.52;9.00;;;27.60;87.10;;;;;;5104373;28;20067;-59
2021/10/23 11:03:51;;;;;;;14.73;9.63;;;27.50;87.30;;;;;;5105521;28;20031;-53
2021/10/23 11:06:36;;;;;;;17.10;10.00;;;27.50;87.40;;;;;;5105733;28;20129;-51
2021/10/23 11:09:11;;;;;;;12.48;8.90;;;27.50;87.40;;;;;;5105555;28;20022;-53
2021/10/23 11:11:48;;;;;;;12.85;9.40;;;27.50;87.30;;;;;;5105422;28;20046;-56
2021/10/23 11:19:23;;;;;;;15.13;9.73;;;27.60;87.70;;;;;;5104408;28;20016;-54
2021/10/23 11:21:51;;;;;;;13.55;9.15;;;27.60;87.80;;;;;;5105169;28;20066;-53
2021/10/23 11:24:17;;;;;;;13.13;9.50;;;27.50;87.70;;;;;;5105127;28;20212;-54
2021/10/23 11:26:51;;;;;;;14.40;8.85;;;27.50;87.80;;;;;;5105165;28;20308;-52
2021/10/23 11:29:25;;;;;;;17.00;9.57;;;27.50;87.90;;;;;;5104970;28;20263;-55
2021/10/23 11:31:57;;;;;;;14.23;9.85;;;27.50;88.10;;;;;;5104980;28;20035;-60
2021/10/23 11:34:27;;;;;;;14.07;10.07;;;27.50;88.50;;;;;;5105009;28;20020;-58
2021/10/23 11:37:11;;;;;;;15.55;10.68;;;27.50;88.70;;;;;;5104907;28;20308;-58
2021/10/23 11:39:57;;;;;;;18.15;11.13;;;27.50;89.00;;;;;;5104995;28;20361;-58
2021/10/23 11:42:31;;;;;;;15.32;10.52;;;27.60;89.20;;;;;;5104926;28;20020;-60
2021/10/23 11:45:13;;;;;;;15.00;9.73;;;27.60;89.20;;;;;;5104550;28;20052;-59
2021/10/23 11:47:40;;;;;;;16.80;10.43;;;27.60;89.30;;;;;;5104842;28;20016;-62
2021/10/23 11:50:18;;;;;;;14.52;10.63;;;27.60;89.30;;;;;;5105058;28;20083;-60
2021/10/23 11:53:04;;;;;;;17.10;9.85;;;27.60;89.20;;;;;;5104726;28;20043;-59
2021/10/23 11:55:35;;;;;;;14.57;10.38;;;27.60;89.40;;;;;;5103368;28;20024;-57
2021/10/23 11:58:10;;;;;;;14.27;10.38;;;27.60;89.70;;;;;;5104613;28;20312;-57
2021/10/23 12:00:40;;;;;;;17.13;11.07;;;27.60;89.80;;;;;;5104923;28;20035;-53
2021/10/23 12:03:13;;;;;;;15.70;10.07;;;27.60;89.90;;;;;;5104368;28;20081;-53
2021/10/23 12:05:41;;;;;;;14.55;10.50;;;27.60;89.90;;;;;;5103368;28;20063;-54
2021/10/23 12:08:15;;;;;;;16.17;10.40;;;27.60;90.10;;;;;;5104323;28;20054;-58
2021/10/23 12:11:17;;;;;;;13.00;9.40;;;27.60;90.10;;;;;;5104670;28;20020;-56
2021/10/23 12:14:00;;;;;;;15.65;10.18;;;27.60;90.10;;;;;;5104504;28;20016;-55
2021/10/23 12:16:46;;;;;;;13.25;10.05;;;27.60;90.20;;;;;;5104849;28;20372;-53
2021/10/23 12:19:34;;;;;;;13.75;9.77;;;27.60;90.00;;;;;;5104287;28;20019;-54
2021/10/23 12:22:11;;;;;;;15.35;9.75;;;27.60;90.10;;;;;;5104135;28;20073;-52
2021/10/23 12:24:48;;;;;;;14.50;10.15;;;27.60;90.00;;;;;;5104375;28;20024;-57
2021/10/23 12:27:25;;;;;;;14.20;9.77;;;27.60;90.00;;;;;;5104081;28;20023;-54
2021/10/23 12:30:04;;;;;;;14.65;9.38;;;27.60;90.00;;;;;;5102950;28;20024;-55
2021/10/23 12:32:46;;;;;;;15.52;9.25;;;27.60;89.60;;;;;;5103973;28;20247;-57
2021/10/23 12:35:25;;;;;;;13.43;8.77;;;27.60;90.00;;;;;;5104329;28;20031;-56
2021/10/23 12:37:57;;;;;;;14.48;8.35;;;27.60;89.50;;;;;;5103159;28;20024;-53
2021/10/23 12:40:35;;;;;;;13.80;9.13;;;27.60;89.30;;;;;;5104225;28;20412;-54
2021/10/23 12:43:14;;;;;;;12.70;8.02;;;27.60;88.80;;;;;;5103892;28;20020;-53
2021/10/23 12:45:49;;;;;;;12.75;8.45;;;27.60;88.70;;;;;;5103970;28;20044;-55
2021/10/23 12:48:17;;;;;;;14.15;8.32;;;27.60;88.40;;;;;;5103826;28;20020;-54
2021/10/23 12:50:46;;;;;;;12.57;7.53;;;27.60;88.40;;;;;;5104541;28;20070;-60
2021/10/23 12:53:13;;;;;;;10.20;7.65;;;27.60;88.40;;;;;;5104190;28;20271;-59
2021/10/23 12:55:40;;;;;;;15.40;7.43;;;27.60;88.30;;;;;;5104241;28;20032;-56
2021/10/23 12:58:07;;;;;;;9.98;7.25;;;27.60;88.20;;;;;;5103970;28;20089;-56
2021/10/23 13:00:34;;;;;;;8.13;6.07;;;27.60;88.20;;;;;;5102869;28;20020;-55
2021/10/23 13:03:01;;;;;;;11.82;6.55;;;27.60;88.10;;;;;;5103783;28;20074;-53
2021/10/23 13:05:28;;;;;;;12.23;6.68;;;27.60;88.10;;;;;;5104059;28;20209;-53
2021/10/23 13:07:54;;;;;;;11.07;6.00;;;27.60;87.90;;;;;;5103851;28;20023;-54
2021/10/23 13:10:21;;;;;;;9.68;6.90;;;27.60;87.70;;;;;;5103817;28;20075;-52
2021/10/23 13:12:48;;;;;;;12.40;6.88;;;27.60;87.70;;;;;;5103668;28;20020;-49
2021/10/23 13:15:16;;;;;;;11.15;6.38;;;27.60;87.70;;;;;;5103887;28;20087;-52
2021/10/23 13:17:44;;;;;;;10.40;6.60;;;27.60;87.90;;;;;;5103587;28;20028;-53
2021/10/23 13:20:12;;;;;;;11.38;6.60;;;27.60;87.80;;;;;;5103929;28;20024;-53
2021/10/23 13:22:43;;;;;;;8.52;6.40;;;27.60;88.00;;;;;;5103652;28;20028;-54